Time;durP1;ratioP1;P1;durP2;ratioP2;P2;SDS_P1;SDS_P2;PMS_P1;PMS_P2;Temp;Humidity;BMP_temperature;BMP_pressure;BME280_temperature;BME280_humidity;BME280_pressure;Samples;Min_cycle;Max_cycle;Signal;HPM_P1;HPM_P2
2024/04/10 00:01:05;;;;;;;3.65;1.23;;;;;;;13.56;41.66;93985.06;5539873;26;20006;-83
2024/04/10 00:03:31;;;;;;;5.95;1.42;;;;;;;13.55;42.12;93977.38;5539925;25;19989;-84
2024/04/10 00:06:15;;;;;;;4.25;1.23;;;;;;;13.50;42.43;93969.53;5540039;25;19996;-84
2024/04/10 00:08:40;;;;;;;3.70;1.30;;;;;;;13.44;42.44;93964.38;5539792;25;19989;-85
2024/04/10 00:11:06;;;;;;;4.88;1.10;;;;;;;13.44;42.00;93977.00;5540118;25;20081;-86
2024/04/10 00:13:32;;;;;;;4.43;1.00;;;;;;;13.44;42.10;93969.72;5540087;25;19985;-87
2024/04/10 00:15:58;;;;;;;4.78;1.20;;;;;;;13.44;41.56;93961.69;5539926;25;19981;-87
2024/04/10 00:18:24;;;;;;;6.15;1.10;;;;;;;13.39;42.06;93964.59;5539431;26;20207;-87
2024/04/10 00:20:49;;;;;;;2.80;1.00;;;;;;;13.39;42.57;93966.47;5539486;25;20001;-87
2024/04/10 00:23:15;;;;;;;3.08;1.05;;;;;;;13.38;42.24;93965.69;5539836;25;19990;-86
2024/04/10 00:25:41;;;;;;;4.63;1.27;;;;;;;13.40;42.18;93968.03;5539498;25;20201;-86
2024/04/10 00:28:06;;;;;;;3.05;1.23;;;;;;;13.38;41.94;93968.38;5507677;26;19985;-86
2024/04/10 00:30:31;;;;;;;3.17;1.20;;;;;;;13.33;42.04;93965.09;5539875;25;20038;-86
2024/04/10 00:32:57;;;;;;;5.25;1.23;;;;;;;13.36;41.64;93969.81;5539232;26;20051;-87
2024/04/10 00:35:23;;;;;;;3.30;1.20;;;;;;;13.37;41.76;93976.72;5539527;26;19982;-85
2024/04/10 00:37:48;;;;;;;5.82;1.20;;;;;;;13.35;42.06;93973.59;5539170;25;19982;-86
2024/04/10 00:40:13;;;;;;;3.75;1.05;;;;;;;13.32;42.22;93969.69;5539492;25;19996;-86
2024/04/10 00:42:39;;;;;;;3.08;1.40;;;;;;;13.27;42.67;93971.72;5539119;25;19997;-86
2024/04/10 00:45:05;;;;;;;2.10;1.10;;;;;;;13.27;42.35;93967.19;5539093;25;19981;-86
2024/04/10 00:47:31;;;;;;;4.88;1.10;;;;;;;13.24;42.76;93967.81;5507696;26;19989;-86
2024/04/10 00:49:57;;;;;;;4.13;1.10;;;;;;;13.09;43.29;93961.16;5507324;26;20184;-86
2024/04/10 00:52:23;;;;;;;4.65;1.02;;;;;;;13.07;43.48;93970.63;5539119;25;19985;-86
2024/04/10 00:54:49;;;;;;;3.63;1.23;;;;;;;13.03;43.23;93963.25;5507185;26;19996;-86
2024/04/10 00:57:14;;;;;;;1.98;1.08;;;;;;;12.99;43.87;93965.00;5505663;26;19985;-86
2024/04/10 00:59:40;;;;;;;2.03;1.02;;;;;;;12.96;43.85;93954.16;5538814;26;20118;-86
2024/04/10 01:02:06;;;;;;;3.05;1.08;;;;;;;12.95;43.86;93958.75;5569406;25;19996;-87
2024/04/10 01:04:32;;;;;;;4.07;1.40;;;;;;;12.94;44.34;93956.38;5539081;25;19989;-86
2024/04/10 01:06:58;;;;;;;6.80;1.38;;;;;;;12.90;44.76;93958.91;5539210;26;19992;-86
2024/04/10 01:09:23;;;;;;;4.88;1.15;;;;;;;12.85;44.53;93959.13;5539005;25;20075;-86
2024/04/10 01:11:49;;;;;;;4.28;1.95;;;;;;;12.80;44.94;93959.28;5539084;26;20005;-87
2024/04/10 01:14:16;;;;;;;8.02;1.23;;;;;;;12.76;45.11;93964.53;5539221;25;19997;-86
2024/04/10 01:16:41;;;;;;;4.25;0.85;;;;;;;12.71;45.13;93954.00;5507269;26;19982;-87
2024/04/10 01:19:08;;;;;;;3.08;1.23;;;;;;;12.67;45.18;93952.31;5538820;26;19981;-86
2024/04/10 01:21:34;;;;;;;2.25;1.00;;;;;;;12.68;45.08;93951.19;5537094;25;19982;-86
2024/04/10 01:23:59;;;;;;;5.85;1.30;;;;;;;12.66;45.02;93946.19;5537423;26;19994;-87
2024/04/10 01:26:25;;;;;;;2.40;1.00;;;;;;;12.65;45.49;93957.97;5536470;25;20005;-87
2024/04/10 01:28:50;;;;;;;2.80;0.95;;;;;;;12.60;45.07;93945.59;5537785;25;20188;-87
2024/04/10 01:31:16;;;;;;;2.03;1.48;;;;;;;12.60;44.90;93945.59;5538536;25;19993;-87
2024/04/10 01:33:41;;;;;;;2.20;1.02;;;;;;;12.59;45.29;93944.00;5506682;26;19985;-86
2024/04/10 01:36:07;;;;;;;4.18;1.27;;;;;;;12.58;44.76;93942.44;5537979;25;19985;-87
2024/04/10 01:38:33;;;;;;;2.28;1.20;;;;;;;12.54;45.13;93938.84;5538956;26;19992;-87
2024/04/10 01:40:59;;;;;;;1.95;1.00;;;;;;;12.54;45.36;93936.19;5538778;25;19985;-86
2024/04/10 01:43:24;;;;;;;3.67;0.95;;;;;;;12.55;45.54;93947.66;5538457;25;20005;-86
2024/04/10 01:45:50;;;;;;;2.80;1.60;;;;;;;12.47;45.69;93940.47;5538778;25;19991;-86
2024/04/10 01:48:15;;;;;;;2.72;0.95;;;;;;;12.48;46.04;93942.03;5537924;26;20088;-86
2024/04/10 01:50:42;;;;;;;3.50;1.27;;;;;;;12.47;45.93;93941.22;5538355;25;19982;-86
2024/04/10 01:53:08;;;;;;;2.35;1.00;;;;;;;12.43;46.18;93941.09;5538534;25;20081;-86
2024/04/10 01:55:33;;;;;;;4.68;1.50;;;;;;;12.40;46.39;93944.41;5537923;25;20203;-85
2024/04/10 01:58:02;;;;;;;2.28;0.90;;;;;;;12.37;46.47;93941.59;5537995;26;19985;-85
2024/04/10 02:00:27;;;;;;;4.05;0.93;;;;;;;12.31;46.70;93934.88;5538788;26;19985;-86
2024/04/10 02:02:53;;;;;;;4.72;1.05;;;;;;;12.28;46.81;93928.28;5538254;25;19988;-85
2024/04/10 02:05:18;;;;;;;5.18;1.35;;;;;;;12.24;46.81;93932.69;5538389;25;20089;-86
2024/04/10 02:07:44;;;;;;;2.70;1.23;;;;;;;12.18;47.14;93940.09;5538136;26;19997;-86
2024/04/10 02:10:09;;;;;;;3.42;1.30;;;;;;;12.13;47.48;93937.63;5509112;26;19985;-85
2024/04/10 02:12:34;;;;;;;2.58;1.08;;;;;;;12.11;47.81;93942.50;5509816;25;20193;-85
2024/04/10 02:15:00;;;;;;;1.85;1.00;;;;;;;12.08;47.95;93942.34;5541673;26;19985;-85
2024/04/10 02:17:25;;;;;;;2.80;1.10;;;;;;;12.05;47.84;93938.44;5509622;26;20041;-85
2024/04/10 02:19:51;;;;;;;3.50;1.23;;;;;;;11.98;48.29;93943.47;5509699;26;19985;-85
2024/04/10 02:22:16;;;;;;;3.13;1.00;;;;;;;11.94;48.54;93934.53;5541671;25;19996;-85
2024/04/10 02:24:42;;;;;;;2.08;0.98;;;;;;;11.90;48.53;93933.63;5541499;25;19997;-85
2024/04/10 02:27:07;;;;;;;5.13;1.40;;;;;;;11.85;48.95;93927.31;5540806;25;19996;-84
2024/04/10 02:29:33;;;;;;;3.85;1.48;;;;;;;11.79;49.36;93928.59;5541570;26;19992;-84
2024/04/10 02:31:59;;;;;;;4.13;1.20;;;;;;;11.78;49.41;93926.22;5541130;25;19985;-85
2024/04/10 02:34:25;;;;;;;4.28;1.30;;;;;;;11.75;49.66;93938.34;5540993;25;20045;-84
2024/04/10 02:36:50;;;;;;;4.40;1.45;;;;;;;11.73;49.75;93934.41;5541256;25;19989;-85
2024/04/10 02:39:16;;;;;;;7.07;1.50;;;;;;;11.71;49.38;93931.28;5541521;25;20037;-84
2024/04/10 02:41:41;;;;;;;3.88;1.08;;;;;;;11.74;49.27;93936.75;5540939;25;19989;-84
2024/04/10 02:44:07;;;;;;;2.25;1.10;;;;;;;11.72;48.72;93938.19;5541052;25;19996;-85
2024/04/10 02:46:32;;;;;;;2.10;1.00;;;;;;;11.71;49.01;93936.63;5509455;26;19981;-84
2024/04/10 02:48:58;;;;;;;2.70;1.50;;;;;;;11.72;49.25;93940.84;5540842;26;20105;-87
2024/04/10 02:51:23;;;;;;;5.75;1.48;;;;;;;11.66;49.41;93945.56;5541333;25;20006;-88
2024/04/10 02:53:48;;;;;;;3.20;1.40;;;;;;;11.63;49.40;93946.22;5509195;26;19989;-88
2024/04/10 02:56:14;;;;;;;2.47;1.52;;;;;;;11.63;50.25;93944.31;5540721;26;19981;-87
2024/04/10 02:58:40;;;;;;;9.40;1.70;;;;;;;11.64;49.96;93958.44;5541325;26;19989;-88
2024/04/10 03:01:11;;;;;;;2.78;1.30;;;;;;;11.58;49.65;93947.16;5540933;25;19997;-88
2024/04/10 03:03:37;;;;;;;2.67;1.50;;;;;;;11.53;50.03;93951.88;5540705;26;19992;-87
2024/04/10 03:06:07;;;;;;;3.28;1.60;;;;;;;11.51;50.37;93959.41;5540792;26;20033;-87
2024/04/10 03:08:33;;;;;;;3.10;1.55;;;;;;;11.43;51.07;93951.09;5541326;26;19985;-87
2024/04/10 03:10:59;;;;;;;3.55;1.63;;;;;;;11.37;51.25;93952.34;5509552;25;20084;-87
2024/04/10 03:13:25;;;;;;;2.17;1.23;;;;;;;11.33;51.22;93946.09;5540987;26;19985;-87
2024/04/10 03:15:51;;;;;;;4.07;1.65;;;;;;;11.31;51.02;93956.28;5540849;26;20038;-88
2024/04/10 03:18:17;;;;;;;10.63;1.67;;;;;;;11.26;51.72;93943.13;5541132;25;19982;-88
2024/04/10 03:20:43;;;;;;;5.18;1.75;;;;;;;11.23;51.61;93943.72;5539521;25;19982;-88
2024/04/10 03:23:08;;;;;;;4.72;1.80;;;;;;;11.21;51.60;93944.06;5509245;26;20007;-88
2024/04/10 03:25:34;;;;;;;2.75;1.40;;;;;;;11.18;52.25;93939.34;5541096;26;19985;-88
2024/04/10 03:28:00;;;;;;;6.13;1.40;;;;;;;11.16;52.17;93938.09;5541119;25;20042;-88
2024/04/10 03:30:28;;;;;;;3.92;1.35;;;;;;;11.12;51.77;93929.16;5509346;26;19997;-87
2024/04/10 03:32:54;;;;;;;1.90;1.08;;;;;;;11.06;51.47;93936.53;5540956;25;19986;-88
2024/04/10 03:35:20;;;;;;;4.63;1.10;;;;;;;11.08;51.63;93939.66;5540237;26;19988;-85
2024/04/10 03:37:46;;;;;;;5.95;1.40;;;;;;;11.05;51.58;93942.94;5540804;26;20215;-84
2024/04/10 03:40:11;;;;;;;2.95;1.20;;;;;;;11.09;51.87;93945.78;5540774;26;19989;-84
2024/04/10 03:42:38;;;;;;;4.07;2.22;;;;;;;11.06;52.12;93949.84;5541595;25;20010;-85
2024/04/10 03:45:04;;;;;;;10.35;1.65;;;;;;;11.07;52.13;93948.75;5540789;26;20137;-85
2024/04/10 03:47:30;;;;;;;11.65;1.55;;;;;;;11.07;52.46;93950.63;5509143;26;20102;-85
2024/04/10 03:49:56;;;;;;;5.93;1.15;;;;;;;11.04;52.08;93952.06;5509048;26;19993;-86
2024/04/10 03:52:21;;;;;;;8.32;1.40;;;;;;;11.00;52.57;93949.22;5540748;25;20045;-86
2024/04/10 03:54:46;;;;;;;7.78;2.10;;;;;;;10.98;52.58;93953.31;5540905;25;20000;-86
2024/04/10 03:57:12;;;;;;;6.05;1.60;;;;;;;10.96;52.19;93950.94;5541711;26;20035;-86
2024/04/10 03:59:37;;;;;;;2.22;1.27;;;;;;;10.94;52.59;93942.47;5540539;25;19989;-86
2024/04/10 04:02:06;;;;;;;3.30;1.65;;;;;;;10.93;52.82;93946.25;5544879;26;19992;-85
2024/04/10 04:04:31;;;;;;;3.42;1.33;;;;;;;10.91;52.91;93952.97;5546569;25;20130;-84
2024/04/10 04:06:57;;;;;;;7.18;2.53;;;;;;;10.88;53.37;93949.06;5511809;26;20113;-84
2024/04/10 04:09:25;;;;;;;6.30;1.70;;;;;;;10.90;53.37;93954.09;5507761;26;20005;-85
2024/04/10 04:11:50;;;;;;;4.63;1.42;;;;;;;10.91;53.14;93953.78;5570479;25;19989;-85
2024/04/10 04:14:16;;;;;;;7.22;1.80;;;;;;;10.93;53.28;93961.44;5540508;26;19996;-86
2024/04/10 04:16:41;;;;;;;3.28;1.42;;;;;;;10.98;52.72;93955.97;5540795;25;19992;-87
2024/04/10 04:19:07;;;;;;;8.43;1.55;;;;;;;11.04;52.37;93958.16;5539797;25;19996;-85
2024/04/10 04:21:32;;;;;;;3.92;1.90;;;;;;;11.10;52.70;93955.38;5540514;25;20008;-85
2024/04/10 04:24:00;;;;;;;7.07;1.65;;;;;;;11.12;53.18;93956.59;5540538;26;19989;-86
2024/04/10 04:26:26;;;;;;;7.38;2.53;;;;;;;11.13;53.23;93962.72;5540664;25;19989;-86
2024/04/10 04:28:52;;;;;;;5.80;1.90;;;;;;;11.18;53.27;93957.25;5540557;25;20197;-86
2024/04/10 04:31:18;;;;;;;4.75;1.63;;;;;;;11.20;53.53;93958.50;5570104;25;20092;-85
2024/04/10 04:33:44;;;;;;;5.30;1.70;;;;;;;11.27;53.14;93962.56;5540410;25;20005;-84
2024/04/10 04:36:10;;;;;;;6.35;2.10;;;;;;;11.33;53.44;93963.97;5541786;25;19996;-88
2024/04/10 04:38:36;;;;;;;5.05;1.70;;;;;;;11.36;53.41;93966.03;5542937;25;20030;-87
2024/04/10 04:41:02;;;;;;;7.07;1.88;;;;;;;11.43;52.83;93977.78;5542722;25;20224;-87
2024/04/10 04:43:28;;;;;;;14.85;2.13;;;;;;;11.46;53.08;93973.72;5512676;26;19981;-87
2024/04/10 04:45:53;;;;;;;5.32;2.28;;;;;;;11.55;52.81;93976.38;5513314;26;19988;-86
2024/04/10 04:48:18;;;;;;;9.13;2.25;;;;;;;11.58;52.30;93973.88;5545358;26;19993;-85
2024/04/10 04:50:46;;;;;;;9.27;3.17;;;;;;;11.67;52.30;93965.06;5546572;25;19986;-86
2024/04/10 04:53:13;;;;;;;29.08;3.95;;;;;;;11.74;52.62;93974.13;5514575;26;20049;-85
2024/04/10 04:55:39;;;;;;;12.40;3.03;;;;;;;11.82;52.75;93973.38;5547348;25;20030;-87
2024/04/10 04:58:05;;;;;;;10.02;3.33;;;;;;;11.89;52.30;93969.44;5547732;26;19985;-85
2024/04/10 05:00:32;;;;;;;22.88;4.18;;;;;;;11.96;52.88;93972.41;5548010;25;19993;-84
2024/04/10 05:02:58;;;;;;;41.28;3.95;;;;;;;12.06;52.72;93982.75;5549149;25;19982;-89
2024/04/10 05:05:24;;;;;;;33.67;4.05;;;;;;;12.15;52.91;93985.38;5550129;25;19981;-89
2024/04/10 05:07:49;;;;;;;23.45;4.30;;;;;;;12.24;52.51;93976.25;5548422;25;19986;-88
2024/04/10 05:10:16;;;;;;;19.30;3.92;;;;;;;12.35;52.33;93981.22;5514576;26;20008;-86
2024/04/10 05:12:42;;;;;;;16.85;3.28;;;;;;;12.44;52.05;93985.44;5545053;25;19989;-87
2024/04/10 05:15:12;;;;;;;13.93;5.68;;;;;;;12.53;51.48;93988.06;5545910;25;20033;-88
2024/04/10 05:17:41;;;;;;;11.50;3.92;;;;;;;12.65;50.62;93982.81;5546214;25;19993;-82
2024/04/10 05:20:11;;;;;;;18.77;3.92;;;;;;;12.73;50.35;93980.44;5542004;25;19992;-84
2024/04/10 05:28:08;;;;;;;;;;;;;;;;;;;;;
2024/04/10 05:30:52;;;;;;;22.58;3.83;;;;;;;13.05;50.28;93976.31;5328908;22;20022;-92
2024/04/10 05:33:46;;;;;;;24.38;3.92;;;;;;;13.13;50.13;93985.41;5301295;26;20008;-83
2024/04/10 05:36:11;;;;;;;35.08;4.65;;;;;;;13.23;50.44;93979.66;5287108;26;19994;-91
2024/04/10 05:38:37;;;;;;;29.80;6.10;;;;;;;13.35;50.56;93981.63;5300811;26;20157;-93
2024/04/10 05:41:03;;;;;;;12.43;4.05;;;;;;;13.41;50.20;93983.78;5300699;26;20003;-92
2024/04/10 05:43:55;;;;;;;33.35;4.97;;;;;;;13.47;49.33;93987.03;5299439;26;19990;-92
2024/04/10 05:48:56;;;;;;;38.42;6.40;;;;;;;13.45;48.66;93994.59;5607055;21;19998;-92
2024/04/10 05:51:21;;;;;;;19.80;3.65;;;;;;;13.46;48.18;93998.88;5300400;26;20030;-89
2024/04/10 05:53:47;;;;;;;19.60;4.03;;;;;;;13.47;47.83;93992.38;5300574;26;20003;-90
2024/04/10 05:56:13;;;;;;;15.05;3.45;;;;;;;13.50;47.51;93993.66;5299885;27;19991;-88
2024/04/10 05:58:38;;;;;;;28.00;3.50;;;;;;;13.37;47.81;93993.59;5299453;27;20001;-89
2024/04/10 06:01:08;;;;;;;16.58;4.22;;;;;;;13.40;47.78;93998.28;5299449;27;20063;-93
2024/04/10 06:03:33;;;;;;;20.42;3.70;;;;;;;13.39;48.86;93995.91;5297098;27;19998;-89
2024/04/10 06:06:12;;;;;;;15.05;3.17;;;;;;;13.50;47.71;93996.31;5299184;27;19990;-90
2024/04/10 06:08:37;;;;;;;13.20;3.30;;;;;;;13.56;47.62;94005.72;5299269;26;19993;-89
2024/04/10 06:11:03;;;;;;;17.23;4.05;;;;;;;13.58;47.40;93984.75;5299469;26;19987;-88
2024/04/10 06:13:28;;;;;;;16.83;4.28;;;;;;;13.61;46.76;93992.13;5299126;27;20030;-89
2024/04/10 06:16:05;;;;;;;28.40;5.45;;;;;;;13.62;47.56;93993.69;5299104;27;20010;-93
2024/04/10 06:18:31;;;;;;;29.55;4.45;;;;;;;13.71;47.40;93991.72;5299493;26;19995;-88
2024/04/10 06:21:00;;;;;;;25.95;3.78;;;;;;;13.75;46.84;93995.31;5298840;26;20000;-89
2024/04/10 06:23:27;;;;;;;26.38;3.95;;;;;;;13.76;46.83;93994.19;5298939;27;20002;-91
2024/04/10 06:25:53;;;;;;;19.65;3.83;;;;;;;13.73;46.22;94000.19;5299544;27;20020;-87
2024/04/10 06:28:19;;;;;;;21.05;3.45;;;;;;;13.80;46.30;94000.47;5298257;27;19986;-89
2024/04/10 06:30:44;;;;;;;17.48;3.45;;;;;;;13.78;45.80;93997.34;5299459;27;20001;-91
2024/04/10 06:33:13;;;;;;;14.45;2.60;;;;;;;13.90;45.25;94003.84;5299520;26;19983;-89
2024/04/10 06:35:38;;;;;;;13.63;2.92;;;;;;;13.98;44.20;93994.94;5297892;27;19986;-91
2024/04/10 06:38:04;;;;;;;16.80;2.33;;;;;;;14.01;44.24;94002.31;5297693;27;19999;-93
2024/04/10 06:40:30;;;;;;;20.77;3.25;;;;;;;14.10;43.95;93989.59;5298770;27;19998;-92
2024/04/10 06:42:56;;;;;;;22.00;3.95;;;;;;;14.22;44.02;93994.97;5298407;27;19990;-93
2024/04/10 06:45:21;;;;;;;18.80;4.28;;;;;;;14.34;44.12;93990.78;5291687;27;19987;-81
2024/04/10 06:47:47;;;;;;;12.63;3.05;;;;;;;14.42;44.69;93995.25;5287884;27;20101;-82
2024/04/10 06:50:13;;;;;;;15.77;2.90;;;;;;;14.49;45.29;93992.81;5288074;27;19994;-81
2024/04/10 06:52:38;;;;;;;8.32;3.80;;;;;;;14.52;44.39;93992.13;5290238;27;20041;-79
2024/04/10 06:55:06;;;;;;;9.93;3.05;;;;;;;14.55;44.18;93991.47;5288282;27;20096;-80
2024/04/10 06:57:32;;;;;;;13.00;3.50;;;;;;;14.57;44.73;93978.53;5291882;27;19987;-80
2024/04/10 07:00:03;;;;;;;20.48;3.35;;;;;;;14.73;44.64;93991.28;5292203;27;19987;-80
2024/04/10 07:02:29;;;;;;;14.77;2.70;;;;;;;14.85;43.98;93988.59;5291671;27;20045;-80
2024/04/10 07:04:54;;;;;;;22.77;3.20;;;;;;;14.97;43.49;93991.25;5291967;27;20269;-80
2024/04/10 07:07:20;;;;;;;10.55;3.45;;;;;;;15.13;43.32;93995.94;5292177;27;19993;-81
2024/04/10 07:09:45;;;;;;;23.50;3.47;;;;;;;15.23;43.05;93998.16;5291682;27;19991;-80
2024/04/10 07:12:11;;;;;;;10.10;2.58;;;;;;;15.31;42.31;93996.47;5291958;27;20036;-81
2024/04/10 07:14:39;;;;;;;18.00;3.50;;;;;;;15.43;42.06;93994.53;5291639;27;20002;-89
2024/04/10 07:17:05;;;;;;;10.18;2.60;;;;;;;15.53;41.04;94000.53;5292021;27;19990;-83
2024/04/10 07:19:34;;;;;;;14.65;2.20;;;;;;;15.63;40.42;93989.31;5290829;27;20209;-83
2024/04/10 07:22:10;;;;;;;18.05;3.33;;;;;;;15.75;40.45;93991.22;5290616;27;20002;-83
2024/04/10 07:24:36;;;;;;;13.85;2.85;;;;;;;15.82;40.04;93994.88;5292095;27;19994;-81
2024/04/10 07:27:02;;;;;;;17.65;2.70;;;;;;;15.95;40.06;93992.91;5291777;27;20071;-82
2024/04/10 07:29:28;;;;;;;23.20;3.00;;;;;;;16.07;40.29;93988.63;5292076;27;19993;-82
2024/04/10 07:31:54;;;;;;;14.55;3.38;;;;;;;16.19;40.03;93993.91;5292007;27;20038;-82
2024/04/10 07:34:19;;;;;;;13.20;2.35;;;;;;;16.32;39.43;93998.09;5291832;27;20006;-82
2024/04/10 07:36:45;;;;;;;15.05;4.80;;;;;;;16.41;39.47;93989.88;5291562;27;20034;-83
2024/04/10 07:39:10;;;;;;;10.15;3.97;;;;;;;16.52;39.39;93998.97;5291299;27;20122;-83
2024/04/10 07:41:37;;;;;;;21.92;4.20;;;;;;;16.65;39.15;93989.69;5287892;27;20156;-83
2024/04/10 07:44:03;;;;;;;14.73;2.38;;;;;;;16.71;39.29;93998.31;5289145;27;20105;-83
2024/04/10 07:46:29;;;;;;;20.83;3.05;;;;;;;16.79;38.33;93999.22;5289499;27;19991;-83
2024/04/10 07:48:56;;;;;;;19.80;2.92;;;;;;;16.86;38.41;93990.59;5288810;27;19990;-84
2024/04/10 07:51:22;;;;;;;17.05;2.78;;;;;;;16.95;38.23;94001.94;5289081;27;19986;-83
2024/04/10 07:53:48;;;;;;;9.30;2.40;;;;;;;17.07;38.40;93998.38;5289506;27;20001;-84
2024/04/10 07:56:14;;;;;;;7.65;2.28;;;;;;;17.13;37.91;93997.75;5289217;27;19998;-83
2024/04/10 07:58:40;;;;;;;24.17;3.10;;;;;;;17.26;38.09;94006.50;5289615;27;19990;-84
2024/04/10 08:01:06;;;;;;;19.00;2.95;;;;;;;17.37;37.54;94006.72;5290115;27;19991;-82
2024/04/10 08:03:32;;;;;;;9.75;2.63;;;;;;;17.42;37.47;93998.34;5291008;27;20002;-82
2024/04/10 08:06:03;;;;;;;16.35;4.00;;;;;;;17.56;37.05;93987.88;5291049;27;20001;-82
2024/04/10 08:08:29;;;;;;;17.15;3.30;;;;;;;17.69;37.03;93999.31;5290846;27;19987;-82
2024/04/10 08:11:07;;;;;;;9.30;2.80;;;;;;;17.80;36.92;93996.81;5291134;27;20005;-82
2024/04/10 08:13:33;;;;;;;13.43;3.30;;;;;;;17.89;36.49;93999.31;5290942;27;19994;-81
2024/04/10 08:16:06;;;;;;;27.38;3.17;;;;;;;18.04;35.93;94003.88;5290927;27;20102;-82
2024/04/10 08:18:35;;;;;;;12.57;2.33;;;;;;;18.14;35.83;94002.53;5290492;27;20041;-82
2024/04/10 08:21:02;;;;;;;13.95;3.47;;;;;;;18.22;35.70;94002.28;5291529;27;20093;-83
2024/04/10 08:23:28;;;;;;;17.38;2.53;;;;;;;18.35;36.06;93996.72;5291120;27;19990;-83
2024/04/10 08:25:54;;;;;;;11.68;2.70;;;;;;;18.47;35.71;93991.16;5291127;27;19992;-83
2024/04/10 08:28:20;;;;;;;9.18;2.47;;;;;;;18.60;35.24;93987.16;5291321;27;20053;-83
2024/04/10 08:30:47;;;;;;;15.00;2.72;;;;;;;18.71;35.08;93995.41;5291114;27;20144;-83
2024/04/10 08:33:12;;;;;;;15.98;2.78;;;;;;;18.85;34.39;94000.28;5291140;27;19991;-83
2024/04/10 08:35:38;;;;;;;10.43;2.78;;;;;;;18.97;34.54;93997.41;5290660;27;20052;-82
2024/04/10 08:38:03;;;;;;;17.70;4.35;;;;;;;19.09;34.10;93999.13;5290933;27;19994;-82
2024/04/10 08:40:33;;;;;;;10.55;2.92;;;;;;;19.22;33.56;94005.88;5291301;27;20182;-82
2024/04/10 08:42:59;;;;;;;6.70;2.10;;;;;;;19.30;33.17;94006.75;5291204;27;19986;-83
2024/04/10 08:45:29;;;;;;;13.93;2.28;;;;;;;19.39;33.31;94011.88;5290704;27;20002;-83
2024/04/10 08:47:56;;;;;;;12.30;2.17;;;;;;;19.48;32.47;94008.91;5290777;27;19990;-82
2024/04/10 08:50:23;;;;;;;12.13;2.70;;;;;;;19.58;32.38;94000.97;5290803;27;20201;-82
2024/04/10 08:52:49;;;;;;;6.50;2.90;;;;;;;19.65;32.11;93997.56;5291102;27;20089;-83
2024/04/10 08:55:15;;;;;;;12.20;1.90;;;;;;;19.76;32.38;94008.53;5289510;27;20010;-82
2024/04/10 08:57:40;;;;;;;12.95;2.28;;;;;;;19.87;32.21;94003.28;5290775;27;19986;-82
2024/04/10 09:00:06;;;;;;;10.57;1.90;;;;;;;19.98;32.13;94015.75;5290416;27;20005;-82
2024/04/10 09:02:35;;;;;;;19.08;3.40;;;;;;;20.04;30.91;94008.09;5290701;27;19998;-82
2024/04/10 09:05:01;;;;;;;23.90;4.45;;;;;;;20.15;30.63;94011.72;5290831;27;19990;-82
2024/04/10 09:07:26;;;;;;;23.10;3.28;;;;;;;20.23;30.15;94007.94;5289530;27;20098;-82
2024/04/10 09:09:52;;;;;;;8.25;1.90;;;;;;;20.32;29.49;94009.56;5290669;27;19990;-83
2024/04/10 09:12:24;;;;;;;3.92;1.52;;;;;;;20.34;27.22;94010.75;5290199;27;20193;-82
2024/04/10 09:14:49;;;;;;;6.00;1.38;;;;;;;20.35;27.22;94008.81;5290814;27;20001;-82
2024/04/10 09:17:17;;;;;;;17.30;1.70;;;;;;;20.43;27.07;94007.72;5290212;27;19990;-82
2024/04/10 09:19:42;;;;;;;3.58;1.25;;;;;;;20.52;25.88;94010.94;5288906;27;19986;-82
2024/04/10 09:22:10;;;;;;;6.60;1.35;;;;;;;20.62;26.10;94010.28;5289983;27;20005;-82
2024/04/10 09:24:36;;;;;;;15.27;1.83;;;;;;;20.71;26.45;94006.47;5289672;27;19997;-82
2024/04/10 09:27:09;;;;;;;3.67;1.27;;;;;;;20.81;25.25;94000.38;5290285;27;19991;-82
2024/04/10 09:29:35;;;;;;;7.13;1.30;;;;;;;20.83;24.14;93998.06;5289523;27;19993;-82
2024/04/10 09:32:07;;;;;;;4.97;1.48;;;;;;;20.94;24.33;93996.19;5290121;27;20190;-82
2024/04/10 09:34:34;;;;;;;6.07;1.63;;;;;;;21.04;25.04;94002.88;5290024;27;19994;-83
2024/04/10 09:37:07;;;;;;;4.70;1.40;;;;;;;21.13;25.08;93995.19;5290289;27;20044;-82
2024/04/10 09:39:32;;;;;;;7.88;1.73;;;;;;;21.21;24.66;93991.38;5289043;27;20225;-83
2024/04/10 09:43:34;;;;;;;4.75;1.90;;;;;;;21.42;25.04;93998.88;5558041;25;20227;-87
2024/04/10 09:46:03;;;;;;;16.08;1.85;;;;;;;21.54;23.05;93991.59;5558831;25;20013;-85
2024/04/10 09:48:35;;;;;;;8.05;2.42;;;;;;;21.66;22.60;93999.41;5557783;25;19985;-85
2024/04/10 09:51:05;;;;;;;6.53;1.60;;;;;;;21.79;21.81;93994.44;5558496;25;20020;-84
2024/04/10 09:53:34;;;;;;;10.23;2.08;;;;;;;21.92;22.51;93986.72;5557852;25;19997;-84
2024/04/10 09:56:04;;;;;;;7.38;1.45;;;;;;;21.98;20.90;93990.63;5557749;25;19985;-84
2024/04/10 09:58:32;;;;;;;6.75;1.38;;;;;;;22.06;21.66;93983.28;5557617;25;20204;-84
2024/04/10 10:01:00;;;;;;;4.25;0.85;;;;;;;22.18;21.42;93980.22;5558099;25;20018;-84
2024/04/10 10:03:28;;;;;;;7.15;1.30;;;;;;;22.28;21.53;93981.44;5557456;25;20195;-84
2024/04/10 10:06:04;;;;;;;5.00;1.05;;;;;;;22.34;17.97;93977.19;5557430;25;19985;-84
2024/04/10 10:08:30;;;;;;;4.10;1.02;;;;;;;22.30;18.80;93981.84;5557775;25;20005;-84
2024/04/10 10:10:57;;;;;;;4.30;1.65;;;;;;;22.40;21.36;93981.06;5558356;25;19985;-85
2024/04/10 10:13:41;;;;;;;6.93;1.48;;;;;;;22.54;21.48;93986.53;5558111;25;19997;-85
2024/04/10 10:16:07;;;;;;;11.35;1.73;;;;;;;22.63;21.80;93984.22;5557840;25;19981;-84
2024/04/10 10:18:33;;;;;;;5.72;1.23;;;;;;;22.76;20.53;93981.13;5557465;25;19993;-83
2024/04/10 10:21:08;;;;;;;2.38;0.88;;;;;;;22.89;18.19;93974.13;5557755;25;20068;-84
2024/04/10 10:23:35;;;;;;;13.27;1.50;;;;;;;22.98;18.43;93977.25;5557061;25;19995;-84
2024/04/10 10:26:01;;;;;;;4.07;1.30;;;;;;;23.07;19.93;93973.38;5525813;25;19997;-88
2024/04/10 10:28:31;;;;;;;2.08;0.88;;;;;;;23.11;19.42;93963.28;5557271;25;20044;-86
2024/04/10 10:31:11;;;;;;;4.13;1.02;;;;;;;23.14;19.20;93968.72;5556773;25;19985;-86
2024/04/10 10:33:38;;;;;;;9.77;1.50;;;;;;;23.24;18.65;93961.69;5556649;25;19989;-86
2024/04/10 10:36:04;;;;;;;6.70;0.98;;;;;;;23.25;17.16;93968.69;5555786;25;20188;-87
2024/04/10 10:38:29;;;;;;;4.65;1.00;;;;;;;23.10;17.26;93964.44;5525528;25;20148;-86
2024/04/10 10:40:55;;;;;;;5.80;1.00;;;;;;;23.05;17.20;93959.41;5556798;25;19985;-86
2024/04/10 10:43:20;;;;;;;2.20;1.00;;;;;;;23.05;18.22;93957.47;5556528;25;20045;-86
2024/04/10 10:45:51;;;;;;;3.15;0.70;;;;;;;23.10;16.27;93953.56;5553972;25;19985;-86
2024/04/10 10:48:17;;;;;;;3.43;0.83;;;;;;;23.06;17.54;93958.22;5522683;25;20010;-86
2024/04/10 10:50:43;;;;;;;9.82;1.05;;;;;;;23.13;18.10;93969.09;5555046;25;19992;-87
2024/04/10 10:53:11;;;;;;;1.23;0.60;;;;;;;23.26;16.61;93961.31;5549170;25;20109;-86
2024/04/10 10:55:37;;;;;;;1.40;0.68;;;;;;;23.37;15.04;93953.91;5508223;26;19982;-86
2024/04/10 10:58:04;;;;;;;11.32;1.25;;;;;;;23.52;16.90;93957.38;5539782;26;19986;-86
2024/04/10 11:00:31;;;;;;;2.78;0.88;;;;;;;23.63;17.03;93953.44;5509443;26;20210;-86
2024/04/10 11:03:07;;;;;;;2.30;0.90;;;;;;;23.75;15.88;93949.53;5541096;25;19981;-86
2024/04/10 11:05:32;;;;;;;4.97;1.60;;;;;;;23.90;16.81;93954.94;5541667;26;20010;-86
2024/04/10 11:07:58;;;;;;;6.40;1.33;;;;;;;24.07;18.71;93950.56;5541118;25;19989;-87
2024/04/10 11:10:25;;;;;;;2.65;0.95;;;;;;;24.04;16.57;93946.69;5540974;26;19985;-87
2024/04/10 11:13:01;;;;;;;2.80;0.85;;;;;;;24.12;16.29;93945.50;5509434;26;20192;-86
2024/04/10 11:15:28;;;;;;;4.13;1.20;;;;;;;24.22;18.89;93949.31;5540895;25;20106;-86
2024/04/10 11:18:02;;;;;;;2.45;1.10;;;;;;;24.33;17.80;93941.09;5541041;25;20403;-86
2024/04/10 11:20:28;;;;;;;2.53;0.90;;;;;;;24.36;18.62;93945.72;5508700;26;20018;-87
2024/04/10 11:23:04;;;;;;;3.20;1.10;;;;;;;24.49;16.82;93944.09;5540603;25;20022;-86
2024/04/10 11:25:30;;;;;;;8.02;0.65;;;;;;;24.47;16.35;93945.69;5540860;25;19989;-87
2024/04/10 11:27:57;;;;;;;3.83;1.00;;;;;;;24.55;18.02;93947.97;5540338;26;19986;-88
2024/04/10 11:30:23;;;;;;;6.07;2.92;;;;;;;24.64;19.06;93947.50;5540632;26;20156;-87
2024/04/10 11:32:48;;;;;;;4.70;2.03;;;;;;;24.76;18.82;93938.09;5508651;26;19985;-88
2024/04/10 11:35:14;;;;;;;7.10;0.80;;;;;;;24.84;16.85;93936.84;5540430;25;19993;-88
2024/04/10 11:37:40;;;;;;;3.72;1.00;;;;;;;24.98;17.82;93930.50;5539884;25;20216;-88
2024/04/10 11:40:11;;;;;;;3.83;1.08;;;;;;;25.09;17.55;93930.41;5508759;26;19996;-89